sensor_id;sensor_type;location;lat;lon;timestamp;P1;durP1;ratioP1;P2;durP2;ratioP2
75758;SDS011;64371;47.566;19.086;2023-06-05T00:01:03;4.07;;;3.05;;
75758;SDS011;64371;47.566;19.086;2023-06-05T00:04:05;4.70;;;2.97;;
75758;SDS011;64371;47.566;19.086;2023-06-05T00:07:08;5.93;;;2.97;;
75758;SDS011;64371;47.566;19.086;2023-06-05T00:10:11;5.93;;;3.23;;
75758;SDS011;64371;47.566;19.086;2023-06-05T00:13:15;4.72;;;3.03;;
75758;SDS011;64371;47.566;19.086;2023-06-05T00:16:18;5.93;;;3.45;;
75758;SDS011;64371;47.566;19.086;2023-06-05T00:19:20;6.57;;;3.35;;
75758;SDS011;64371;47.566;19.086;2023-06-05T00:22:23;3.85;;;2.75;;
75758;SDS011;64371;47.566;19.086;2023-06-05T00:25:25;6.40;;;3.10;;
75758;SDS011;64371;47.566;19.086;2023-06-05T00:28:28;5.38;;;3.20;;
75758;SDS011;64371;47.566;19.086;2023-06-05T00:31:30;5.10;;;3.10;;
75758;SDS011;64371;47.566;19.086;2023-06-05T00:34:34;4.95;;;3.00;;
75758;SDS011;64371;47.566;19.086;2023-06-05T00:37:38;5.18;;;2.88;;
75758;SDS011;64371;47.566;19.086;2023-06-05T00:40:40;4.07;;;2.90;;
75758;SDS011;64371;47.566;19.086;2023-06-05T00:43:43;5.55;;;3.13;;
75758;SDS011;64371;47.566;19.086;2023-06-05T00:46:47;4.80;;;3.08;;
75758;SDS011;64371;47.566;19.086;2023-06-05T00:49:51;3.83;;;2.67;;
75758;SDS011;64371;47.566;19.086;2023-06-05T00:52:54;6.50;;;2.70;;
75758;SDS011;64371;47.566;19.086;2023-06-05T00:55:57;7.00;;;3.00;;
75758;SDS011;64371;47.566;19.086;2023-06-05T00:58:59;3.45;;;2.60;;
75758;SDS011;64371;47.566;19.086;2023-06-05T01:02:02;6.90;;;3.15;;
75758;SDS011;64371;47.566;19.086;2023-06-05T01:05:04;6.53;;;2.80;;
75758;SDS011;64371;47.566;19.086;2023-06-05T01:08:08;6.57;;;3.00;;
75758;SDS011;64371;47.566;19.086;2023-06-05T01:14:48;3.70;;;2.90;;
75758;SDS011;64371;47.566;19.086;2023-06-05T01:17:51;4.20;;;2.65;;
75758;SDS011;64371;47.566;19.086;2023-06-05T01:20:54;3.63;;;2.60;;
75758;SDS011;64371;47.566;19.086;2023-06-05T01:23:58;4.53;;;2.47;;
75758;SDS011;64371;47.566;19.086;2023-06-05T01:27:03;3.27;;;2.47;;
75758;SDS011;64371;47.566;19.086;2023-06-05T01:31:03;5.03;;;2.95;;
75758;SDS011;64371;47.566;19.086;2023-06-05T01:37:04;6.03;;;3.15;;
75758;SDS011;64371;47.566;19.086;2023-06-05T01:40:11;5.82;;;2.90;;
75758;SDS011;64371;47.566;19.086;2023-06-05T01:43:16;3.60;;;2.90;;
75758;SDS011;64371;47.566;19.086;2023-06-05T01:46:20;4.10;;;3.13;;
75758;SDS011;64371;47.566;19.086;2023-06-05T01:49:24;3.80;;;2.53;;
75758;SDS011;64371;47.566;19.086;2023-06-05T01:52:27;4.63;;;3.20;;
75758;SDS011;64371;47.566;19.086;2023-06-05T01:55:30;5.30;;;2.95;;
75758;SDS011;64371;47.566;19.086;2023-06-05T01:58:33;7.77;;;3.17;;
75758;SDS011;64371;47.566;19.086;2023-06-05T02:01:35;5.50;;;2.75;;
75758;SDS011;64371;47.566;19.086;2023-06-05T02:04:37;5.55;;;2.75;;
75758;SDS011;64371;47.566;19.086;2023-06-05T02:07:41;5.03;;;3.08;;
75758;SDS011;64371;47.566;19.086;2023-06-05T02:10:49;5.43;;;2.88;;
75758;SDS011;64371;47.566;19.086;2023-06-05T02:13:52;3.30;;;2.80;;
75758;SDS011;64371;47.566;19.086;2023-06-05T02:16:54;4.45;;;2.42;;
75758;SDS011;64371;47.566;19.086;2023-06-05T02:19:58;3.92;;;2.47;;
75758;SDS011;64371;47.566;19.086;2023-06-05T02:23:00;4.03;;;3.00;;
75758;SDS011;64371;47.566;19.086;2023-06-05T02:26:03;5.03;;;3.03;;
75758;SDS011;64371;47.566;19.086;2023-06-05T02:29:06;5.80;;;3.03;;
75758;SDS011;64371;47.566;19.086;2023-06-05T02:32:08;5.07;;;3.00;;
75758;SDS011;64371;47.566;19.086;2023-06-05T02:35:12;4.22;;;2.78;;
75758;SDS011;64371;47.566;19.086;2023-06-05T02:38:16;4.28;;;3.00;;
75758;SDS011;64371;47.566;19.086;2023-06-05T02:41:18;5.05;;;2.92;;
75758;SDS011;64371;47.566;19.086;2023-06-05T02:44:23;4.50;;;2.90;;
75758;SDS011;64371;47.566;19.086;2023-06-05T02:47:26;3.67;;;3.10;;
75758;SDS011;64371;47.566;19.086;2023-06-05T02:50:28;8.55;;;3.30;;
75758;SDS011;64371;47.566;19.086;2023-06-05T02:53:33;4.03;;;3.15;;
75758;SDS011;64371;47.566;19.086;2023-06-05T02:56:35;5.25;;;3.03;;
75758;SDS011;64371;47.566;19.086;2023-06-05T02:59:38;4.53;;;3.10;;
75758;SDS011;64371;47.566;19.086;2023-06-05T03:02:46;6.25;;;3.38;;
75758;SDS011;64371;47.566;19.086;2023-06-05T03:05:54;5.50;;;3.30;;
75758;SDS011;64371;47.566;19.086;2023-06-05T03:08:56;4.97;;;3.30;;
75758;SDS011;64371;47.566;19.086;2023-06-05T03:11:59;6.85;;;3.10;;
75758;SDS011;64371;47.566;19.086;2023-06-05T03:15:02;5.37;;;2.83;;
75758;SDS011;64371;47.566;19.086;2023-06-05T03:18:06;4.47;;;3.05;;
75758;SDS011;64371;47.566;19.086;2023-06-05T03:21:10;4.10;;;2.80;;
75758;SDS011;64371;47.566;19.086;2023-06-05T03:24:14;4.95;;;3.33;;
75758;SDS011;64371;47.566;19.086;2023-06-05T03:27:23;3.60;;;2.65;;
75758;SDS011;64371;47.566;19.086;2023-06-05T03:30:25;4.30;;;2.90;;
75758;SDS011;64371;47.566;19.086;2023-06-05T03:33:30;4.90;;;3.13;;
75758;SDS011;64371;47.566;19.086;2023-06-05T03:36:32;4.57;;;3.10;;
75758;SDS011;64371;47.566;19.086;2023-06-05T03:39:41;5.60;;;3.17;;
75758;SDS011;64371;47.566;19.086;2023-06-05T03:42:43;5.25;;;3.00;;
75758;SDS011;64371;47.566;19.086;2023-06-05T03:45:46;6.93;;;4.37;;
75758;SDS011;64371;47.566;19.086;2023-06-05T03:48:49;4.40;;;3.58;;
75758;SDS011;64371;47.566;19.086;2023-06-05T03:51:51;5.78;;;3.38;;
75758;SDS011;64371;47.566;19.086;2023-06-05T03:54:54;6.97;;;4.18;;
75758;SDS011;64371;47.566;19.086;2023-06-05T03:57:57;5.75;;;3.22;;
75758;SDS011;64371;47.566;19.086;2023-06-05T04:01:00;4.93;;;3.10;;
75758;SDS011;64371;47.566;19.086;2023-06-05T04:04:04;5.80;;;3.30;;
75758;SDS011;64371;47.566;19.086;2023-06-05T04:07:11;3.95;;;2.95;;
75758;SDS011;64371;47.566;19.086;2023-06-05T04:10:13;5.53;;;3.08;;
75758;SDS011;64371;47.566;19.086;2023-06-05T04:13:16;6.18;;;3.38;;
75758;SDS011;64371;47.566;19.086;2023-06-05T04:16:19;4.07;;;3.23;;
75758;SDS011;64371;47.566;19.086;2023-06-05T04:19:22;5.88;;;3.22;;
75758;SDS011;64371;47.566;19.086;2023-06-05T04:22:27;4.60;;;3.40;;
75758;SDS011;64371;47.566;19.086;2023-06-05T04:25:30;7.10;;;3.22;;
75758;SDS011;64371;47.566;19.086;2023-06-05T04:28:32;5.38;;;3.47;;
75758;SDS011;64371;47.566;19.086;2023-06-05T04:31:37;5.53;;;3.30;;
75758;SDS011;64371;47.566;19.086;2023-06-05T04:34:42;5.18;;;3.70;;
75758;SDS011;64371;47.566;19.086;2023-06-05T04:37:45;5.90;;;3.53;;
75758;SDS011;64371;47.566;19.086;2023-06-05T04:40:48;4.43;;;3.00;;
75758;SDS011;64371;47.566;19.086;2023-06-05T04:43:52;4.90;;;3.25;;
75758;SDS011;64371;47.566;19.086;2023-06-05T04:46:56;6.17;;;3.50;;
75758;SDS011;64371;47.566;19.086;2023-06-05T04:49:58;5.68;;;2.75;;
75758;SDS011;64371;47.566;19.086;2023-06-05T04:53:02;4.72;;;2.88;;
75758;SDS011;64371;47.566;19.086;2023-06-05T04:56:07;4.40;;;2.90;;
75758;SDS011;64371;47.566;19.086;2023-06-05T04:59:09;5.82;;;2.90;;
75758;SDS011;64371;47.566;19.086;2023-06-05T05:02:12;4.00;;;3.00;;
75758;SDS011;64371;47.566;19.086;2023-06-05T05:05:17;6.13;;;3.20;;
75758;SDS011;64371;47.566;19.086;2023-06-05T05:08:21;4.60;;;3.20;;
75758;SDS011;64371;47.566;19.086;2023-06-05T05:11:24;6.13;;;2.97;;
75758;SDS011;64371;47.566;19.086;2023-06-05T05:14:27;4.40;;;2.90;;
75758;SDS011;64371;47.566;19.086;2023-06-05T05:17:30;4.30;;;3.10;;
75758;SDS011;64371;47.566;19.086;2023-06-05T05:20:33;6.85;;;3.33;;
75758;SDS011;64371;47.566;19.086;2023-06-05T05:23:38;4.55;;;3.22;;
75758;SDS011;64371;47.566;19.086;2023-06-05T05:26:40;6.05;;;3.28;;
75758;SDS011;64371;47.566;19.086;2023-06-05T05:29:43;5.03;;;2.90;;
75758;SDS011;64371;47.566;19.086;2023-06-05T05:32:46;3.83;;;2.87;;
75758;SDS011;64371;47.566;19.086;2023-06-05T05:35:49;4.25;;;2.55;;
75758;SDS011;64371;47.566;19.086;2023-06-05T05:38:53;5.95;;;3.05;;
75758;SDS011;64371;47.566;19.086;2023-06-05T05:41:56;7.80;;;3.20;;
75758;SDS011;64371;47.566;19.086;2023-06-05T05:44:58;7.13;;;2.90;;
75758;SDS011;64371;47.566;19.086;2023-06-05T05:48:01;5.43;;;3.40;;
75758;SDS011;64371;47.566;19.086;2023-06-05T05:51:04;7.55;;;3.20;;
75758;SDS011;64371;47.566;19.086;2023-06-05T05:54:08;6.30;;;4.38;;
75758;SDS011;64371;47.566;19.086;2023-06-05T05:57:11;6.70;;;3.47;;
75758;SDS011;64371;47.566;19.086;2023-06-05T06:00:14;5.50;;;3.20;;
75758;SDS011;64371;47.566;19.086;2023-06-05T06:03:17;5.53;;;3.37;;
75758;SDS011;64371;47.566;19.086;2023-06-05T06:06:20;6.15;;;3.20;;
75758;SDS011;64371;47.566;19.086;2023-06-05T06:09:22;11.00;;;3.53;;
75758;SDS011;64371;47.566;19.086;2023-06-05T06:12:25;7.18;;;3.83;;
75758;SDS011;64371;47.566;19.086;2023-06-05T06:15:28;5.75;;;3.72;;
75758;SDS011;64371;47.566;19.086;2023-06-05T06:18:31;5.30;;;3.60;;
75758;SDS011;64371;47.566;19.086;2023-06-05T06:21:33;9.77;;;4.43;;
75758;SDS011;64371;47.566;19.086;2023-06-05T06:24:36;5.68;;;3.53;;
75758;SDS011;64371;47.566;19.086;2023-06-05T06:27:39;8.40;;;3.40;;
75758;SDS011;64371;47.566;19.086;2023-06-05T06:30:41;6.53;;;3.80;;
75758;SDS011;64371;47.566;19.086;2023-06-05T06:33:44;8.93;;;3.50;;
75758;SDS011;64371;47.566;19.086;2023-06-05T06:36:47;8.85;;;4.40;;
75758;SDS011;64371;47.566;19.086;2023-06-05T06:39:49;8.98;;;4.07;;
75758;SDS011;64371;47.566;19.086;2023-06-05T06:42:55;10.38;;;3.60;;
75758;SDS011;64371;47.566;19.086;2023-06-05T06:46:26;5.80;;;3.03;;
75758;SDS011;64371;47.566;19.086;2023-06-05T06:49:29;6.40;;;3.50;;
75758;SDS011;64371;47.566;19.086;2023-06-05T06:52:32;8.57;;;3.28;;
75758;SDS011;64371;47.566;19.086;2023-06-05T06:55:35;6.82;;;3.30;;
75758;SDS011;64371;47.566;19.086;2023-06-05T06:58:38;6.03;;;3.50;;
75758;SDS011;64371;47.566;19.086;2023-06-05T07:01:44;5.60;;;3.35;;
75758;SDS011;64371;47.566;19.086;2023-06-05T07:04:48;8.33;;;4.00;;
75758;SDS011;64371;47.566;19.086;2023-06-05T07:07:51;12.68;;;3.60;;
75758;SDS011;64371;47.566;19.086;2023-06-05T07:10:53;5.13;;;3.03;;
75758;SDS011;64371;47.566;19.086;2023-06-05T07:13:57;8.57;;;3.60;;
75758;SDS011;64371;47.566;19.086;2023-06-05T07:17:00;5.25;;;3.38;;
75758;SDS011;64371;47.566;19.086;2023-06-05T07:20:05;8.17;;;3.27;;
75758;SDS011;64371;47.566;19.086;2023-06-05T07:23:08;6.95;;;3.60;;
75758;SDS011;64371;47.566;19.086;2023-06-05T07:26:10;6.68;;;3.65;;
75758;SDS011;64371;47.566;19.086;2023-06-05T07:29:14;6.47;;;3.22;;
75758;SDS011;64371;47.566;19.086;2023-06-05T07:32:17;6.63;;;3.35;;
75758;SDS011;64371;47.566;19.086;2023-06-05T07:35:20;7.30;;;3.70;;
75758;SDS011;64371;47.566;19.086;2023-06-05T07:38:23;6.43;;;3.50;;
75758;SDS011;64371;47.566;19.086;2023-06-05T07:41:25;7.97;;;3.50;;
75758;SDS011;64371;47.566;19.086;2023-06-05T07:44:28;6.10;;;3.17;;
75758;SDS011;64371;47.566;19.086;2023-06-05T07:47:30;7.90;;;3.65;;
75758;SDS011;64371;47.566;19.086;2023-06-05T07:50:33;8.23;;;3.23;;
75758;SDS011;64371;47.566;19.086;2023-06-05T07:53:35;7.00;;;3.25;;
75758;SDS011;64371;47.566;19.086;2023-06-05T07:56:38;16.33;;;3.25;;
75758;SDS011;64371;47.566;19.086;2023-06-05T07:59:41;5.88;;;3.42;;
75758;SDS011;64371;47.566;19.086;2023-06-05T08:02:44;8.02;;;3.70;;
75758;SDS011;64371;47.566;19.086;2023-06-05T08:05:47;8.40;;;4.50;;
75758;SDS011;64371;47.566;19.086;2023-06-05T08:08:50;6.78;;;3.40;;
75758;SDS011;64371;47.566;19.086;2023-06-05T08:11:53;4.65;;;2.90;;
75758;SDS011;64371;47.566;19.086;2023-06-05T08:14:55;11.98;;;3.63;;
75758;SDS011;64371;47.566;19.086;2023-06-05T08:17:58;7.00;;;3.83;;
75758;SDS011;64371;47.566;19.086;2023-06-05T08:21:01;5.37;;;3.10;;
75758;SDS011;64371;47.566;19.086;2023-06-05T08:24:04;7.03;;;3.30;;
75758;SDS011;64371;47.566;19.086;2023-06-05T08:27:07;8.55;;;3.20;;
75758;SDS011;64371;47.566;19.086;2023-06-05T08:30:10;7.15;;;3.22;;
75758;SDS011;64371;47.566;19.086;2023-06-05T08:33:13;6.60;;;3.33;;
75758;SDS011;64371;47.566;19.086;2023-06-05T08:36:16;8.07;;;3.70;;
75758;SDS011;64371;47.566;19.086;2023-06-05T08:39:19;5.80;;;3.25;;
75758;SDS011;64371;47.566;19.086;2023-06-05T08:42:25;7.82;;;3.50;;
75758;SDS011;64371;47.566;19.086;2023-06-05T08:45:31;8.07;;;3.50;;
75758;SDS011;64371;47.566;19.086;2023-06-05T08:48:37;7.20;;;3.67;;
75758;SDS011;64371;47.566;19.086;2023-06-05T08:51:44;8.90;;;3.80;;
75758;SDS011;64371;47.566;19.086;2023-06-05T08:54:47;6.38;;;3.88;;
75758;SDS011;64371;47.566;19.086;2023-06-05T08:57:51;5.82;;;3.70;;
75758;SDS011;64371;47.566;19.086;2023-06-05T09:00:54;6.10;;;3.75;;
75758;SDS011;64371;47.566;19.086;2023-06-05T09:03:57;7.03;;;3.38;;
75758;SDS011;64371;47.566;19.086;2023-06-05T09:06:59;6.00;;;3.77;;
75758;SDS011;64371;47.566;19.086;2023-06-05T09:10:03;5.97;;;3.60;;
75758;SDS011;64371;47.566;19.086;2023-06-05T09:13:06;15.00;;;3.50;;
75758;SDS011;64371;47.566;19.086;2023-06-05T09:16:08;11.80;;;3.60;;
75758;SDS011;64371;47.566;19.086;2023-06-05T09:19:11;6.22;;;3.45;;
75758;SDS011;64371;47.566;19.086;2023-06-05T09:22:15;9.13;;;3.70;;
75758;SDS011;64371;47.566;19.086;2023-06-05T09:25:18;5.05;;;3.72;;
75758;SDS011;64371;47.566;19.086;2023-06-05T09:28:21;7.50;;;3.72;;
75758;SDS011;64371;47.566;19.086;2023-06-05T09:31:24;6.20;;;3.35;;
75758;SDS011;64371;47.566;19.086;2023-06-05T09:34:30;9.90;;;3.92;;
75758;SDS011;64371;47.566;19.086;2023-06-05T09:37:34;9.83;;;3.70;;
75758;SDS011;64371;47.566;19.086;2023-06-05T09:40:38;8.50;;;3.42;;
75758;SDS011;64371;47.566;19.086;2023-06-05T09:43:41;5.60;;;3.15;;
75758;SDS011;64371;47.566;19.086;2023-06-05T09:49:55;6.75;;;3.70;;
75758;SDS011;64371;47.566;19.086;2023-06-05T09:52:58;6.80;;;3.40;;
75758;SDS011;64371;47.566;19.086;2023-06-05T09:56:01;5.10;;;3.30;;
75758;SDS011;64371;47.566;19.086;2023-06-05T09:59:05;4.82;;;3.15;;
75758;SDS011;64371;47.566;19.086;2023-06-05T10:02:08;9.18;;;3.22;;
75758;SDS011;64371;47.566;19.086;2023-06-05T10:05:11;6.57;;;3.63;;
75758;SDS011;64371;47.566;19.086;2023-06-05T10:08:13;6.60;;;3.80;;
75758;SDS011;64371;47.566;19.086;2023-06-05T10:11:17;5.95;;;3.78;;
75758;SDS011;64371;47.566;19.086;2023-06-05T10:14:23;8.43;;;4.10;;
75758;SDS011;64371;47.566;19.086;2023-06-05T10:17:25;7.93;;;3.70;;
75758;SDS011;64371;47.566;19.086;2023-06-05T10:20:28;8.50;;;4.10;;
75758;SDS011;64371;47.566;19.086;2023-06-05T10:23:31;5.23;;;3.50;;
75758;SDS011;64371;47.566;19.086;2023-06-05T10:41:03;6.03;;;3.70;;
75758;SDS011;64371;47.566;19.086;2023-06-05T10:44:06;5.40;;;3.70;;
75758;SDS011;64371;47.566;19.086;2023-06-05T10:50:40;6.35;;;3.65;;
75758;SDS011;64371;47.566;19.086;2023-06-05T10:53:47;4.45;;;3.25;;
75758;SDS011;64371;47.566;19.086;2023-06-05T10:56:57;5.87;;;2.00;;
75758;SDS011;64371;47.566;19.086;2023-06-05T11:00:06;5.15;;;2.22;;
75758;SDS011;64371;47.566;19.086;2023-06-05T11:03:13;4.28;;;2.95;;
75758;SDS011;64371;47.566;19.086;2023-06-05T11:06:15;7.35;;;2.80;;
75758;SDS011;64371;47.566;19.086;2023-06-05T11:09:18;2.97;;;2.22;;
75758;SDS011;64371;47.566;19.086;2023-06-05T11:12:21;3.70;;;2.50;;
75758;SDS011;64371;47.566;19.086;2023-06-05T11:15:40;5.03;;;2.58;;
75758;SDS011;64371;47.566;19.086;2023-06-05T11:18:45;5.72;;;2.40;;
75758;SDS011;64371;47.566;19.086;2023-06-05T11:22:04;3.67;;;2.15;;
75758;SDS011;64371;47.566;19.086;2023-06-05T11:28:42;4.60;;;2.10;;
75758;SDS011;64371;47.566;19.086;2023-06-05T11:31:45;4.03;;;2.65;;
75758;SDS011;64371;47.566;19.086;2023-06-05T11:34:49;6.40;;;2.67;;
75758;SDS011;64371;47.566;19.086;2023-06-05T11:41:24;3.30;;;2.47;;
75758;SDS011;64371;47.566;19.086;2023-06-05T11:44:31;5.90;;;2.53;;
75758;SDS011;64371;47.566;19.086;2023-06-05T11:47:38;4.70;;;3.20;;
75758;SDS011;64371;47.566;19.086;2023-06-05T11:54:05;2.78;;;1.80;;
75758;SDS011;64371;47.566;19.086;2023-06-05T11:57:16;4.05;;;2.78;;
75758;SDS011;64371;47.566;19.086;2023-06-05T12:00:23;3.67;;;2.33;;
75758;SDS011;64371;47.566;19.086;2023-06-05T12:03:26;4.93;;;2.60;;
75758;SDS011;64371;47.566;19.086;2023-06-05T12:06:30;4.43;;;2.63;;
75758;SDS011;64371;47.566;19.086;2023-06-05T12:09:33;3.47;;;2.63;;
75758;SDS011;64371;47.566;19.086;2023-06-05T12:12:51;4.22;;;2.47;;
75758;SDS011;64371;47.566;19.086;2023-06-05T12:15:58;5.40;;;2.70;;
75758;SDS011;64371;47.566;19.086;2023-06-05T12:19:01;2.03;;;1.73;;
75758;SDS011;64371;47.566;19.086;2023-06-05T12:22:17;5.97;;;2.28;;
75758;SDS011;64371;47.566;19.086;2023-06-05T12:25:21;4.90;;;2.60;;
75758;SDS011;64371;47.566;19.086;2023-06-05T12:28:24;5.95;;;3.00;;
75758;SDS011;64371;47.566;19.086;2023-06-05T12:31:32;3.50;;;2.90;;
75758;SDS011;64371;47.566;19.086;2023-06-05T12:34:44;4.03;;;2.70;;
75758;SDS011;64371;47.566;19.086;2023-06-05T12:37:51;4.22;;;2.28;;
75758;SDS011;64371;47.566;19.086;2023-06-05T12:40:53;5.38;;;2.58;;
75758;SDS011;64371;47.566;19.086;2023-06-05T12:44:06;4.63;;;2.63;;
75758;SDS011;64371;47.566;19.086;2023-06-05T12:47:10;4.17;;;2.40;;
75758;SDS011;64371;47.566;19.086;2023-06-05T12:50:13;5.32;;;2.78;;
75758;SDS011;64371;47.566;19.086;2023-06-05T12:53:15;6.35;;;1.88;;
75758;SDS011;64371;47.566;19.086;2023-06-05T12:56:18;3.90;;;2.50;;
75758;SDS011;64371;47.566;19.086;2023-06-05T12:59:30;9.68;;;2.42;;
75758;SDS011;64371;47.566;19.086;2023-06-05T13:02:33;6.60;;;2.80;;
75758;SDS011;64371;47.566;19.086;2023-06-05T13:05:38;5.32;;;2.50;;
75758;SDS011;64371;47.566;19.086;2023-06-05T13:08:41;5.82;;;2.40;;
75758;SDS011;64371;47.566;19.086;2023-06-05T13:11:43;8.65;;;2.38;;
75758;SDS011;64371;47.566;19.086;2023-06-05T13:14:45;4.00;;;2.70;;
75758;SDS011;64371;47.566;19.086;2023-06-05T13:17:48;3.17;;;2.40;;
75758;SDS011;64371;47.566;19.086;2023-06-05T13:20:51;4.65;;;2.40;;
75758;SDS011;64371;47.566;19.086;2023-06-05T13:23:54;4.10;;;2.78;;
75758;SDS011;64371;47.566;19.086;2023-06-05T13:26:56;4.15;;;2.38;;
75758;SDS011;64371;47.566;19.086;2023-06-05T13:29:59;4.25;;;2.78;;
75758;SDS011;64371;47.566;19.086;2023-06-05T13:33:02;5.83;;;2.40;;
75758;SDS011;64371;47.566;19.086;2023-06-05T13:36:04;3.72;;;2.63;;
75758;SDS011;64371;47.566;19.086;2023-06-05T13:39:08;3.90;;;2.03;;
75758;SDS011;64371;47.566;19.086;2023-06-05T13:42:11;5.03;;;2.50;;
75758;SDS011;64371;47.566;19.086;2023-06-05T13:45:14;6.50;;;2.63;;
75758;SDS011;64371;47.566;19.086;2023-06-05T13:48:16;4.40;;;2.20;;
75758;SDS011;64371;47.566;19.086;2023-06-05T13:51:19;4.70;;;2.78;;
75758;SDS011;64371;47.566;19.086;2023-06-05T13:54:21;3.85;;;2.33;;
75758;SDS011;64371;47.566;19.086;2023-06-05T13:57:24;4.32;;;2.50;;
75758;SDS011;64371;47.566;19.086;2023-06-05T14:00:29;4.50;;;2.17;;
75758;SDS011;64371;47.566;19.086;2023-06-05T14:03:32;6.03;;;2.10;;
75758;SDS011;64371;47.566;19.086;2023-06-05T14:06:34;6.03;;;2.47;;
75758;SDS011;64371;47.566;19.086;2023-06-05T14:09:40;4.60;;;2.45;;
75758;SDS011;64371;47.566;19.086;2023-06-05T14:12:43;5.75;;;2.58;;
75758;SDS011;64371;47.566;19.086;2023-06-05T14:15:45;6.18;;;2.80;;
75758;SDS011;64371;47.566;19.086;2023-06-05T14:18:50;4.27;;;2.73;;
75758;SDS011;64371;47.566;19.086;2023-06-05T14:21:52;7.53;;;2.75;;
75758;SDS011;64371;47.566;19.086;2023-06-05T14:24:55;3.78;;;2.60;;
75758;SDS011;64371;47.566;19.086;2023-06-05T14:27:58;3.63;;;2.28;;
75758;SDS011;64371;47.566;19.086;2023-06-05T14:31:01;2.90;;;2.03;;
75758;SDS011;64371;47.566;19.086;2023-06-05T14:34:04;3.60;;;2.20;;
75758;SDS011;64371;47.566;19.086;2023-06-05T14:37:07;5.18;;;3.00;;
75758;SDS011;64371;47.566;19.086;2023-06-05T14:40:09;4.13;;;2.50;;
75758;SDS011;64371;47.566;19.086;2023-06-05T14:43:12;4.05;;;2.10;;
75758;SDS011;64371;47.566;19.086;2023-06-05T14:46:14;6.07;;;2.67;;
75758;SDS011;64371;47.566;19.086;2023-06-05T14:49:17;4.75;;;2.50;;
75758;SDS011;64371;47.566;19.086;2023-06-05T14:52:20;3.70;;;1.95;;
75758;SDS011;64371;47.566;19.086;2023-06-05T14:55:22;4.40;;;2.17;;
75758;SDS011;64371;47.566;19.086;2023-06-05T14:58:25;6.78;;;2.80;;
75758;SDS011;64371;47.566;19.086;2023-06-05T15:01:27;3.10;;;2.45;;
75758;SDS011;64371;47.566;19.086;2023-06-05T15:04:29;7.00;;;2.67;;
75758;SDS011;64371;47.566;19.086;2023-06-05T15:07:36;6.20;;;1.90;;
75758;SDS011;64371;47.566;19.086;2023-06-05T15:10:42;2.07;;;1.60;;
75758;SDS011;64371;47.566;19.086;2023-06-05T15:13:44;6.60;;;1.80;;
75758;SDS011;64371;47.566;19.086;2023-06-05T15:16:46;2.88;;;2.47;;
75758;SDS011;64371;47.566;19.086;2023-06-05T15:19:49;6.38;;;2.30;;
75758;SDS011;64371;47.566;19.086;2023-06-05T15:22:52;3.55;;;2.22;;
75758;SDS011;64371;47.566;19.086;2023-06-05T15:26:15;5.23;;;3.10;;
75758;SDS011;64371;47.566;19.086;2023-06-05T15:29:18;5.22;;;2.60;;
75758;SDS011;64371;47.566;19.086;2023-06-05T15:32:21;2.72;;;1.98;;
75758;SDS011;64371;47.566;19.086;2023-06-05T15:35:24;5.18;;;2.53;;
75758;SDS011;64371;47.566;19.086;2023-06-05T15:38:27;3.28;;;2.13;;
75758;SDS011;64371;47.566;19.086;2023-06-05T15:41:29;4.27;;;2.10;;
75758;SDS011;64371;47.566;19.086;2023-06-05T15:44:32;5.50;;;2.40;;
75758;SDS011;64371;47.566;19.086;2023-06-05T15:47:35;4.78;;;2.35;;
75758;SDS011;64371;47.566;19.086;2023-06-05T15:50:37;3.47;;;2.47;;
75758;SDS011;64371;47.566;19.086;2023-06-05T15:53:41;4.68;;;2.35;;
75758;SDS011;64371;47.566;19.086;2023-06-05T15:57:02;3.40;;;2.47;;
75758;SDS011;64371;47.566;19.086;2023-06-05T16:00:05;4.60;;;2.28;;
75758;SDS011;64371;47.566;19.086;2023-06-05T16:03:11;3.63;;;2.63;;
75758;SDS011;64371;47.566;19.086;2023-06-05T16:06:16;4.13;;;2.65;;
75758;SDS011;64371;47.566;19.086;2023-06-05T16:09:19;4.00;;;2.50;;
75758;SDS011;64371;47.566;19.086;2023-06-05T16:12:22;4.23;;;2.43;;
75758;SDS011;64371;47.566;19.086;2023-06-05T16:15:24;3.25;;;2.13;;
75758;SDS011;64371;47.566;19.086;2023-06-05T16:18:28;5.18;;;2.35;;
75758;SDS011;64371;47.566;19.086;2023-06-05T16:21:31;6.88;;;2.67;;
75758;SDS011;64371;47.566;19.086;2023-06-05T16:24:33;3.28;;;2.25;;
75758;SDS011;64371;47.566;19.086;2023-06-05T16:27:36;6.00;;;2.80;;
75758;SDS011;64371;47.566;19.086;2023-06-05T16:30:38;7.28;;;2.50;;
75758;SDS011;64371;47.566;19.086;2023-06-05T16:33:41;3.97;;;2.97;;
75758;SDS011;64371;47.566;19.086;2023-06-05T16:36:44;4.22;;;2.50;;
75758;SDS011;64371;47.566;19.086;2023-06-05T16:39:46;3.33;;;2.50;;
75758;SDS011;64371;47.566;19.086;2023-06-05T16:42:51;5.00;;;2.60;;
75758;SDS011;64371;47.566;19.086;2023-06-05T16:45:54;5.97;;;2.50;;
75758;SDS011;64371;47.566;19.086;2023-06-05T16:48:57;5.30;;;2.70;;
75758;SDS011;64371;47.566;19.086;2023-06-05T16:51:59;3.65;;;2.80;;
75758;SDS011;64371;47.566;19.086;2023-06-05T16:55:02;4.50;;;2.80;;
75758;SDS011;64371;47.566;19.086;2023-06-05T16:58:05;7.10;;;2.77;;
75758;SDS011;64371;47.566;19.086;2023-06-05T17:01:07;9.00;;;2.97;;
75758;SDS011;64371;47.566;19.086;2023-06-05T17:04:11;7.85;;;3.10;;
75758;SDS011;64371;47.566;19.086;2023-06-05T17:07:14;6.15;;;3.05;;
75758;SDS011;64371;47.566;19.086;2023-06-05T17:10:16;6.47;;;3.20;;
75758;SDS011;64371;47.566;19.086;2023-06-05T17:13:19;4.93;;;3.40;;
75758;SDS011;64371;47.566;19.086;2023-06-05T17:16:21;5.80;;;3.10;;
75758;SDS011;64371;47.566;19.086;2023-06-05T17:19:24;5.93;;;2.88;;
75758;SDS011;64371;47.566;19.086;2023-06-05T17:22:26;7.30;;;2.97;;
75758;SDS011;64371;47.566;19.086;2023-06-05T17:25:29;7.57;;;2.88;;
75758;SDS011;64371;47.566;19.086;2023-06-05T17:28:31;5.17;;;2.87;;
75758;SDS011;64371;47.566;19.086;2023-06-05T17:31:33;4.95;;;2.90;;
75758;SDS011;64371;47.566;19.086;2023-06-05T17:34:36;6.57;;;2.88;;
75758;SDS011;64371;47.566;19.086;2023-06-05T17:37:38;9.00;;;3.67;;
75758;SDS011;64371;47.566;19.086;2023-06-05T17:40:41;6.43;;;3.00;;
75758;SDS011;64371;47.566;19.086;2023-06-05T17:43:44;7.23;;;3.27;;
75758;SDS011;64371;47.566;19.086;2023-06-05T17:46:50;5.07;;;2.90;;
75758;SDS011;64371;47.566;19.086;2023-06-05T17:49:53;6.32;;;3.50;;
75758;SDS011;64371;47.566;19.086;2023-06-05T17:52:56;8.75;;;3.28;;
75758;SDS011;64371;47.566;19.086;2023-06-05T17:55:59;7.15;;;3.17;;
75758;SDS011;64371;47.566;19.086;2023-06-05T17:59:01;6.80;;;3.13;;
75758;SDS011;64371;47.566;19.086;2023-06-05T18:02:04;5.13;;;3.40;;
75758;SDS011;64371;47.566;19.086;2023-06-05T18:05:07;4.68;;;3.05;;
75758;SDS011;64371;47.566;19.086;2023-06-05T18:08:10;7.93;;;3.92;;
75758;SDS011;64371;47.566;19.086;2023-06-05T18:11:14;6.93;;;2.80;;
75758;SDS011;64371;47.566;19.086;2023-06-05T18:14:17;5.07;;;2.90;;
75758;SDS011;64371;47.566;19.086;2023-06-05T18:17:20;6.10;;;2.90;;
75758;SDS011;64371;47.566;19.086;2023-06-05T18:20:22;4.65;;;3.00;;
75758;SDS011;64371;47.566;19.086;2023-06-05T18:23:25;7.15;;;3.17;;
75758;SDS011;64371;47.566;19.086;2023-06-05T18:26:27;6.82;;;3.22;;
75758;SDS011;64371;47.566;19.086;2023-06-05T18:29:30;7.00;;;3.27;;
75758;SDS011;64371;47.566;19.086;2023-06-05T18:32:32;6.82;;;3.40;;
75758;SDS011;64371;47.566;19.086;2023-06-05T18:35:35;6.13;;;3.10;;
75758;SDS011;64371;47.566;19.086;2023-06-05T18:38:38;4.80;;;3.28;;
75758;SDS011;64371;47.566;19.086;2023-06-05T18:41:41;6.15;;;3.38;;
75758;SDS011;64371;47.566;19.086;2023-06-05T18:44:43;8.40;;;3.60;;
75758;SDS011;64371;47.566;19.086;2023-06-05T18:47:46;7.22;;;3.28;;